createdAt,value
2022-12-11T00:00:17.263Z,12.10
2022-12-11T00:04:18.801Z,12.41
2022-12-11T00:08:18.293Z,12.71
2022-12-11T00:12:17.903Z,12.85
2022-12-11T00:16:19.531Z,13.02
2022-12-11T00:20:24.423Z,13.33
2022-12-11T00:24:23.975Z,13.44
2022-12-11T00:28:23.576Z,13.70
2022-12-11T00:32:22.564Z,14.13
2022-12-11T00:36:26.708Z,14.43
2022-12-11T00:40:26.180Z,14.51
2022-12-11T00:44:25.676Z,14.88
2022-12-11T00:48:25.205Z,14.86
2022-12-11T00:52:26.842Z,15.39
2022-12-11T00:56:26.416Z,15.66
2022-12-11T01:00:26.829Z,15.69
2022-12-11T01:04:26.458Z,15.66
2022-12-11T01:08:28.281Z,15.49
2022-12-11T01:12:28.235Z,15.31
2022-12-11T01:16:27.950Z,15.33
2022-12-11T01:20:29.374Z,15.24
2022-12-11T01:24:30.995Z,15.25
2022-12-11T01:28:30.570Z,15.30
2022-12-11T01:32:30.764Z,15.47
2022-12-11T01:36:30.308Z,15.65
2022-12-11T01:40:32.427Z,15.66
2022-12-11T01:45:09.297Z,15.69
2022-12-11T01:49:13.021Z,15.84
2022-12-11T01:53:16.084Z,15.74
2022-12-11T01:57:18.367Z,15.71
2022-12-11T02:01:24.703Z,15.64
2022-12-11T02:05:24.328Z,15.73
2022-12-11T02:09:27.304Z,15.61
2022-12-11T02:13:36.870Z,15.55
2022-12-11T02:17:42.819Z,15.48
2022-12-11T02:21:45.682Z,15.66
2022-12-11T02:25:54.350Z,15.62
2022-12-11T02:30:03.118Z,15.74
2022-12-11T02:34:06.957Z,15.73
2022-12-11T02:38:10.648Z,15.71
2022-12-11T02:42:11.830Z,15.86
2022-12-11T02:46:14.371Z,16.06
2022-12-11T02:50:19.047Z,16.29
2022-12-11T02:54:22.458Z,16.37
2022-12-11T02:58:24.828Z,16.40
2022-12-11T03:02:26.654Z,16.50
2022-12-11T03:06:31.269Z,16.73
2022-12-11T03:10:30.763Z,16.72
2022-12-11T03:14:30.310Z,16.81
2022-12-11T03:18:37.053Z,16.91
2022-12-11T03:22:42.584Z,17.07
2022-12-11T03:26:46.230Z,17.12
2022-12-11T03:30:47.252Z,17.16
2022-12-11T03:34:58.482Z,17.07
2022-12-11T03:39:00.545Z,17.22
2022-12-11T03:43:00.574Z,17.27
2022-12-11T03:47:02.098Z,17.25
2022-12-11T03:51:06.941Z,17.22
2022-12-11T03:55:08.890Z,17.30
2022-12-11T03:59:08.587Z,17.36
2022-12-11T04:03:17.577Z,17.34
2022-12-11T04:07:19.136Z,17.33
2022-12-11T04:11:36.510Z,17.42
2022-12-11T04:15:36.158Z,17.44
2022-12-11T04:19:52.259Z,17.73
2022-12-11T04:24:09.990Z,17.76
2022-12-11T04:28:09.661Z,17.84
2022-12-11T04:32:09.093Z,17.94
2022-12-11T04:36:09.639Z,18.04
2022-12-11T04:40:15.189Z,18.07
2022-12-11T04:44:16.811Z,18.14
2022-12-11T04:48:16.280Z,18.23
2022-12-11T04:52:15.863Z,18.16
2022-12-11T04:56:18.486Z,18.06
2022-12-11T05:00:19.289Z,18.26
2022-12-11T05:04:18.771Z,18.32
2022-12-11T05:08:18.833Z,18.31
2022-12-11T05:12:20.561Z,18.30
2022-12-11T05:16:20.177Z,18.40
2022-12-11T05:20:19.822Z,18.35
2022-12-11T05:24:19.390Z,18.32
2022-12-11T05:28:20.976Z,18.23
2022-12-11T05:32:20.728Z,18.29
2022-12-11T05:36:22.926Z,18.25
2022-12-11T05:40:22.377Z,18.39
2022-12-11T05:44:24.339Z,18.37
2022-12-11T05:48:23.888Z,18.35
2022-12-11T05:52:23.471Z,18.23
2022-12-11T05:56:26.023Z,18.33
2022-12-11T06:00:31.538Z,18.34
2022-12-11T06:04:33.963Z,18.28
2022-12-11T06:08:33.539Z,18.20
2022-12-11T06:12:33.377Z,18.22
2022-12-11T06:16:35.127Z,18.06
2022-12-11T06:20:35.281Z,18.08
2022-12-11T06:24:34.712Z,18.07
2022-12-11T06:28:34.152Z,18.17
2022-12-11T06:32:35.783Z,18.17
2022-12-11T06:36:35.362Z,18.15
2022-12-11T06:40:34.856Z,18.07
2022-12-11T06:44:34.382Z,17.91
2022-12-11T06:48:36.466Z,18.09
2022-12-11T06:52:36.956Z,18.00
2022-12-11T06:56:37.423Z,18.06
2022-12-11T07:00:37.509Z,18.09
2022-12-11T07:04:38.682Z,18.13
2022-12-11T07:08:38.290Z,17.99
2022-12-11T07:12:38.142Z,18.14
2022-12-11T07:16:39.819Z,18.24
2022-12-11T07:20:41.025Z,18.23
2022-12-11T07:24:40.565Z,18.05
2022-12-11T07:28:40.051Z,18.28
2022-12-11T07:32:38.719Z,18.30
2022-12-11T07:36:40.297Z,18.30
2022-12-11T07:40:39.816Z,18.42
2022-12-11T07:44:39.359Z,18.52
2022-12-11T07:48:39.948Z,18.92
2022-12-11T07:52:41.752Z,19.36
2022-12-11T07:56:43.866Z,19.58
2022-12-11T08:00:43.255Z,19.55
2022-12-11T08:04:43.054Z,19.30
2022-12-11T08:08:45.247Z,19.64
2022-12-11T08:12:44.886Z,19.69
2022-12-11T08:16:44.726Z,19.78
2022-12-11T08:20:44.345Z,19.91
2022-12-11T08:24:46.318Z,20.12
2022-12-11T08:28:46.082Z,20.06
2022-12-11T08:32:45.573Z,20.11
2022-12-11T08:36:46.586Z,20.41
2022-12-11T08:40:48.320Z,20.63
2022-12-11T08:44:47.863Z,20.97
2022-12-11T08:48:47.691Z,21.02
2022-12-11T08:52:47.488Z,20.66
2022-12-11T08:56:51.310Z,20.75
2022-12-11T09:00:53.295Z,20.61
2022-12-11T09:04:52.600Z,20.26
2022-12-11T09:08:56.062Z,20.30
2022-12-11T09:12:57.306Z,20.47
2022-12-11T09:16:56.888Z,20.22
2022-12-11T09:21:03.123Z,20.04
2022-12-11T09:25:02.699Z,19.93
2022-12-11T09:29:05.238Z,19.95
2022-12-11T09:33:04.787Z,19.90
2022-12-11T09:37:04.338Z,19.40
2022-12-11T09:41:04.465Z,19.84
2022-12-11T09:45:07.262Z,19.84
2022-12-11T09:49:16.352Z,19.70
2022-12-11T09:53:20.527Z,19.76
2022-12-11T09:57:34.237Z,19.41
2022-12-11T10:01:44.156Z,19.25
2022-12-11T10:05:51.070Z,19.18
2022-12-11T10:09:58.524Z,19.42
2022-12-11T10:14:08.684Z,19.60
2022-12-11T10:18:16.808Z,19.21
2022-12-11T10:22:23.025Z,19.25
2022-12-11T10:26:23.828Z,18.98
2022-12-11T10:30:30.401Z,18.42
2022-12-11T10:34:37.243Z,18.68
2022-12-11T10:38:42.431Z,18.67
2022-12-11T10:42:45.607Z,18.61
2022-12-11T10:46:46.320Z,18.78
2022-12-11T10:50:59.136Z,18.72
2022-12-11T10:55:02.090Z,18.35
2022-12-11T10:59:03.209Z,17.84
2022-12-11T11:03:04.273Z,17.86
2022-12-11T11:07:14.524Z,17.59
2022-12-11T11:11:28.825Z,17.51
2022-12-11T11:15:30.299Z,17.49
2022-12-11T11:19:36.950Z,17.37
2022-12-11T11:23:46.321Z,17.38
2022-12-11T11:27:53.657Z,17.00
2022-12-11T11:31:53.423Z,16.68
2022-12-11T11:35:56.459Z,17.18
2022-12-11T11:40:04.963Z,17.33
2022-12-11T11:44:08.950Z,17.17
2022-12-11T11:54:13.071Z,17.36
2022-12-11T11:58:36.317Z,16.82
2022-12-11T12:02:35.786Z,16.69
2022-12-11T12:07:02.708Z,16.68
2022-12-11T12:11:13.413Z,16.78
2022-12-11T12:15:47.641Z,16.66
2022-12-11T12:19:58.217Z,16.45
2022-12-11T12:25:10.059Z,16.50
2022-12-11T12:29:30.908Z,16.56
2022-12-11T12:33:47.387Z,16.68
2022-12-11T12:37:59.122Z,15.95
2022-12-11T12:42:08.195Z,16.20
2022-12-11T12:46:21.906Z,16.19
2022-12-11T12:50:27.168Z,16.43
2022-12-11T12:54:39.156Z,16.28
2022-12-11T12:58:48.442Z,15.97
2022-12-11T13:03:03.733Z,15.51
2022-12-11T13:07:25.511Z,15.12
2022-12-11T13:11:36.246Z,14.92
2022-12-11T13:15:43.514Z,14.16
2022-12-11T13:19:47.929Z,14.34
2022-12-11T13:23:51.487Z,14.24
2022-12-11T13:27:51.967Z,13.98
2022-12-11T13:32:00.915Z,13.46
2022-12-11T13:36:30.886Z,13.50
2022-12-11T13:40:40.090Z,13.36
2022-12-11T13:44:43.886Z,13.20
2022-12-11T13:48:49.704Z,13.01
2022-12-11T13:52:56.100Z,12.66
2022-12-11T13:57:17.679Z,12.42
2022-12-11T14:01:23.293Z,11.89
2022-12-11T14:05:27.365Z,12.00
2022-12-11T14:09:29.662Z,11.88
2022-12-11T14:13:41.666Z,11.56
2022-12-11T14:17:51.355Z,11.36
2022-12-11T14:22:03.445Z,11.02
2022-12-11T14:26:17.330Z,10.68
2022-12-11T14:30:27.033Z,10.55
2022-12-11T14:34:28.438Z,10.21
2022-12-11T14:38:32.102Z,10.42
2022-12-11T14:42:35.926Z,10.10
2022-12-11T14:46:46.069Z,10.11
2022-12-11T14:50:50.049Z,9.94
2022-12-11T14:54:56.636Z,9.78
2022-12-11T14:59:00.467Z,9.56
2022-12-11T15:03:14.211Z,9.26
2022-12-11T15:07:27.495Z,9.32
2022-12-11T15:11:37.051Z,8.91
2022-12-11T15:15:48.258Z,9.21
2022-12-11T15:19:56.876Z,9.03
2022-12-11T15:24:02.638Z,8.86
2022-12-11T15:28:04.893Z,8.81
2022-12-11T15:32:26.247Z,8.73
2022-12-11T15:36:48.671Z,8.76
2022-12-11T15:40:57.816Z,8.88
2022-12-11T15:44:58.286Z,8.14
2022-12-11T15:48:59.733Z,8.11
2022-12-11T15:53:27.161Z,8.28
2022-12-11T15:57:34.092Z,8.44
2022-12-11T16:01:34.213Z,8.18
2022-12-11T16:05:33.969Z,8.29
2022-12-11T16:09:45.999Z,8.19
2022-12-11T16:13:46.142Z,7.96
2022-12-11T16:17:49.370Z,7.98
2022-12-11T16:21:49.734Z,8.06
2022-12-11T16:25:52.258Z,7.37
2022-12-11T16:29:51.979Z,7.76
2022-12-11T16:33:52.552Z,7.74
2022-12-11T16:37:56.694Z,7.60
2022-12-11T16:42:06.595Z,7.47
2022-12-11T16:46:14.857Z,7.45
2022-12-11T16:50:17.645Z,7.37
2022-12-11T16:54:23.627Z,7.34
2022-12-11T16:58:35.270Z,7.26
2022-12-11T17:07:33.154Z,7.14
2022-12-11T17:11:34.597Z,6.91
2022-12-11T17:15:46.057Z,6.53
2022-12-11T17:20:13.884Z,6.49
2022-12-11T17:24:18.437Z,6.56
2022-12-11T17:28:18.599Z,6.67
2022-12-11T17:32:24.863Z,6.23
2022-12-11T17:36:27.349Z,6.27
2022-12-11T17:40:27.625Z,6.32
2022-12-11T17:44:30.058Z,6.37
2022-12-11T17:48:32.342Z,5.89
2022-12-11T17:52:44.005Z,5.95
2022-12-11T17:56:44.824Z,5.97
2022-12-11T18:00:57.985Z,6.07
2022-12-11T18:05:03.623Z,5.94
2022-12-11T18:09:03.207Z,5.79
2022-12-11T18:13:07.846Z,5.92
2022-12-11T18:17:57.406Z,5.83
2022-12-11T18:22:25.022Z,5.77
2022-12-11T18:26:34.165Z,5.59
2022-12-11T18:30:43.510Z,5.54
2022-12-11T18:34:49.209Z,5.74
2022-12-11T18:38:52.101Z,5.62
2022-12-11T18:43:20.211Z,5.41
2022-12-11T18:47:25.495Z,5.64
2022-12-11T18:51:27.003Z,5.25
2022-12-11T18:55:34.129Z,5.15
2022-12-11T18:59:34.968Z,5.18
2022-12-11T19:03:34.521Z,4.98
2022-12-11T19:07:34.423Z,5.44
2022-12-11T19:11:41.045Z,5.07
2022-12-11T19:15:42.215Z,5.33
2022-12-11T19:19:42.856Z,5.12
2022-12-11T19:23:43.228Z,5.13
2022-12-11T19:27:49.770Z,5.00
2022-12-11T19:31:49.871Z,5.28
2022-12-11T19:35:49.760Z,4.98
2022-12-11T19:39:49.728Z,5.35
2022-12-11T19:43:53.143Z,4.81
2022-12-11T19:47:54.379Z,4.78
2022-12-11T19:51:54.120Z,5.23
2022-12-11T19:55:55.108Z,5.06
2022-12-11T19:59:57.506Z,4.82
2022-12-11T20:03:59.811Z,5.02
2022-12-11T20:08:27.360Z,4.86
2022-12-11T20:12:20.079Z,4.89
2022-12-11T20:16:39.214Z,4.93
2022-12-11T20:20:41.977Z,4.55
2022-12-11T20:24:41.649Z,4.83
2022-12-11T20:28:41.707Z,4.79
2022-12-11T20:32:45.729Z,4.76
2022-12-11T20:36:45.691Z,4.78
2022-12-11T20:40:48.010Z,4.67
2022-12-11T20:44:49.375Z,4.66
2022-12-11T20:48:51.635Z,4.75
2022-12-11T20:52:54.049Z,4.45
2022-12-11T20:56:59.473Z,4.67
2022-12-11T21:00:59.261Z,4.54
2022-12-11T21:05:01.210Z,4.66
2022-12-11T21:09:00.677Z,4.48
2022-12-11T21:13:00.364Z,4.55
2022-12-11T21:16:59.978Z,4.42
2022-12-11T21:21:01.989Z,4.74
2022-12-11T21:25:01.821Z,4.47
2022-12-11T21:29:01.643Z,4.77
2022-12-11T21:33:02.636Z,4.58
2022-12-11T21:37:04.471Z,4.86
2022-12-11T21:41:10.177Z,4.47
2022-12-11T21:49:29.988Z,4.77
2022-12-11T21:53:31.668Z,4.77
2022-12-11T21:57:30.975Z,4.85
2022-12-11T22:01:34.536Z,4.92
2022-12-11T22:05:34.350Z,4.95
2022-12-11T22:09:36.079Z,4.52
2022-12-11T22:13:35.825Z,4.74
2022-12-11T22:17:36.727Z,4.85
2022-12-11T22:21:36.330Z,4.72
2022-12-11T22:25:37.741Z,4.66
2022-12-11T22:29:37.389Z,4.64
2022-12-11T22:33:36.534Z,4.62
2022-12-11T22:37:35.834Z,4.46
2022-12-11T22:41:41.726Z,4.47
2022-12-11T22:45:42.135Z,4.22
2022-12-11T22:49:42.278Z,4.45
2022-12-11T22:53:41.567Z,4.26
2022-12-11T22:57:43.273Z,4.37
2022-12-11T23:01:43.027Z,4.05
2022-12-11T23:05:42.928Z,4.21
2022-12-11T23:09:42.599Z,4.37
2022-12-11T23:13:44.398Z,4.20
2022-12-11T23:17:44.089Z,4.41
2022-12-11T23:21:43.546Z,4.39
2022-12-11T23:25:43.703Z,4.32
2022-12-11T23:29:45.406Z,4.05
2022-12-11T23:33:47.740Z,4.31
2022-12-11T23:37:47.316Z,4.21
2022-12-11T23:41:47.595Z,4.10
2022-12-11T23:45:50.233Z,3.96
2022-12-11T23:49:49.809Z,4.11
2022-12-11T23:53:51.712Z,4.08
2022-12-11T23:57:51.245Z,4.04
